Time;durP1;ratioP1;P1;durP2;ratioP2;P2;SDS_P1;SDS_P2;PMS_P1;PMS_P2;Temp;Humidity;BMP_temperature;BMP_pressure;BME280_temperature;BME280_humidity;BME280_pressure;Samples;Min_cycle;Max_cycle;Signal;HPM_P1;HPM_P2
2023/01/08 00:01:05;;;;;;;16.63;5.88;;;-15.70;99.90;;;;;;5072810;28;20090;-71
2023/01/08 00:03:33;;;;;;;14.02;5.35;;;-15.60;99.90;;;;;;5071264;28;20040;-69
2023/01/08 00:06:02;;;;;;;20.05;7.25;;;-15.60;99.90;;;;;;5070085;28;20049;-71
2023/01/08 00:08:30;;;;;;;15.80;6.10;;;-15.50;99.90;;;;;;5069973;28;20044;-69
2023/01/08 00:10:58;;;;;;;15.65;4.75;;;-15.40;99.90;;;;;;5055423;28;20041;-68
2023/01/08 00:13:27;;;;;;;15.00;4.88;;;-15.40;99.90;;;;;;5070585;28;20094;-70
2023/01/08 00:15:55;;;;;;;16.17;6.70;;;-15.40;99.90;;;;;;5071040;28;20033;-69
2023/01/08 00:18:23;;;;;;;15.13;5.53;;;-15.40;99.90;;;;;;5069593;28;20509;-70
2023/01/08 00:20:50;;;;;;;17.83;5.40;;;-15.40;99.90;;;;;;5066781;28;20475;-69
2023/01/08 00:23:19;;;;;;;10.65;4.97;;;-15.30;99.90;;;;;;5061237;28;20416;-70
2023/01/08 00:25:47;;;;;;;20.40;5.55;;;-15.20;99.90;;;;;;5069330;28;20036;-70
2023/01/08 00:28:15;;;;;;;17.70;6.05;;;-15.20;99.90;;;;;;5051499;28;20198;-71
2023/01/08 00:30:44;;;;;;;13.75;5.32;;;-15.20;99.90;;;;;;5054413;28;20614;-70
2023/01/08 00:33:12;;;;;;;17.55;4.90;;;-15.20;99.90;;;;;;5072481;28;20076;-69
2023/01/08 00:35:40;;;;;;;11.48;5.10;;;-15.30;99.90;;;;;;5064557;28;20475;-69
2023/01/08 00:38:08;;;;;;;12.73;4.63;;;-15.30;99.90;;;;;;5062634;28;20063;-70
2023/01/08 00:40:37;;;;;;;17.23;5.10;;;-15.30;99.90;;;;;;5068978;28;20496;-68
2023/01/08 00:43:05;;;;;;;11.02;4.20;;;-15.30;99.90;;;;;;5072842;28;20053;-70
2023/01/08 00:45:32;;;;;;;16.85;5.93;;;-15.40;99.90;;;;;;5062115;28;20569;-69
2023/01/08 00:48:01;;;;;;;11.32;5.43;;;-15.50;99.90;;;;;;5064675;28;20037;-69
2023/01/08 00:50:28;;;;;;;13.23;4.53;;;-15.60;99.90;;;;;;5062691;28;20041;-69
2023/01/08 00:52:56;;;;;;;15.40;4.53;;;-15.60;99.90;;;;;;5071016;28;20391;-69
2023/01/08 00:55:23;;;;;;;11.13;4.68;;;-15.70;99.90;;;;;;5056445;28;20528;-69
2023/01/08 00:57:51;;;;;;;11.40;4.18;;;-15.70;99.90;;;;;;5064375;28;20086;-70
2023/01/08 01:00:18;;;;;;;14.05;5.68;;;-15.70;99.90;;;;;;5070614;28;20147;-69
2023/01/08 01:02:46;;;;;;;12.80;3.35;;;-15.70;99.90;;;;;;5066926;28;20049;-70
2023/01/08 01:05:15;;;;;;;12.10;4.10;;;-15.70;99.90;;;;;;5052584;28;20095;-69
2023/01/08 01:07:44;;;;;;;15.52;5.47;;;-15.70;99.90;;;;;;5070296;28;20049;-70
2023/01/08 01:10:14;;;;;;;10.27;5.03;;;-15.60;99.90;;;;;;5070795;28;20155;-69
2023/01/08 01:12:42;;;;;;;10.07;5.53;;;-15.60;99.90;;;;;;5062815;28;20505;-69
2023/01/08 01:15:14;;;;;;;7.93;4.53;;;-15.60;99.90;;;;;;5065177;28;20048;-70
2023/01/08 01:17:43;;;;;;;10.60;4.70;;;-15.60;99.90;;;;;;5069806;28;20488;-70
2023/01/08 01:20:17;;;;;;;11.05;3.78;;;-15.50;99.90;;;;;;5051886;28;20126;-70
2023/01/08 01:22:44;;;;;;;14.57;6.13;;;-15.50;99.90;;;;;;5067888;28;20519;-70
2023/01/08 01:25:12;;;;;;;12.85;4.57;;;-15.50;99.90;;;;;;5070572;28;20054;-70
2023/01/08 01:27:40;;;;;;;13.25;4.95;;;-15.50;99.90;;;;;;5070203;28;20072;-69
2023/01/08 01:30:09;;;;;;;12.32;4.40;;;-15.50;99.90;;;;;;5068805;28;20055;-70
2023/01/08 01:32:37;;;;;;;15.95;4.85;;;-15.50;99.90;;;;;;5069697;28;20051;-70
2023/01/08 01:35:05;;;;;;;9.57;3.67;;;-15.50;99.90;;;;;;5070510;28;20492;-70
2023/01/08 01:37:34;;;;;;;8.50;3.45;;;-15.50;99.90;;;;;;5070826;28;20059;-69
2023/01/08 01:40:01;;;;;;;16.67;4.93;;;-15.50;99.90;;;;;;5062145;28;20098;-69
2023/01/08 01:42:40;;;;;;;11.32;3.78;;;-15.60;99.90;;;;;;5069252;28;20047;-70
2023/01/08 01:45:20;;;;;;;11.30;4.88;;;-15.60;99.90;;;;;;5068868;28;20171;-70
2023/01/08 01:47:54;;;;;;;5.50;2.55;;;-15.70;99.90;;;;;;5054947;28;20049;-70
2023/01/08 01:50:28;;;;;;;18.95;5.63;;;-15.70;99.90;;;;;;5056542;28;20455;-69
2023/01/08 01:53:01;;;;;;;10.25;4.13;;;-15.80;99.90;;;;;;5056096;28;20060;-68
2023/01/08 01:55:31;;;;;;;12.02;3.50;;;-15.70;99.90;;;;;;5063278;28;20563;-68
2023/01/08 01:58:06;;;;;;;12.68;4.60;;;-15.70;99.90;;;;;;5060594;28;20064;-69
2023/01/08 02:00:35;;;;;;;16.50;5.03;;;-15.70;99.90;;;;;;5052745;28;20053;-70
2023/01/08 02:03:04;;;;;;;13.32;5.03;;;-15.60;99.90;;;;;;5069177;28;20051;-70
2023/01/08 02:05:51;;;;;;;11.35;4.55;;;-15.60;99.90;;;;;;5069393;28;20052;-70
2023/01/08 02:08:29;;;;;;;12.68;5.13;;;-15.60;99.90;;;;;;5058183;28;20095;-70
2023/01/08 02:11:06;;;;;;;18.73;5.85;;;-15.60;99.90;;;;;;5054048;28;20113;-69
2023/01/08 02:13:38;;;;;;;11.45;4.75;;;-15.60;99.90;;;;;;5061755;28;20049;-70
2023/01/08 02:16:13;;;;;;;16.27;6.30;;;-15.60;99.90;;;;;;5052316;28;20049;-70
2023/01/08 02:18:47;;;;;;;10.88;4.20;;;-15.60;99.90;;;;;;5056293;28;20088;-70
2023/01/08 02:21:21;;;;;;;16.58;5.15;;;-15.60;99.90;;;;;;5050790;28;20052;-69
2023/01/08 02:24:01;;;;;;;15.50;5.30;;;-15.60;99.90;;;;;;5066144;28;20485;-70
2023/01/08 02:26:32;;;;;;;15.27;4.93;;;-15.50;99.90;;;;;;5056634;28;20070;-68
2023/01/08 02:29:07;;;;;;;14.05;4.93;;;-15.60;99.90;;;;;;5068324;28;20052;-69
2023/01/08 02:31:36;;;;;;;20.58;6.85;;;-15.70;99.90;;;;;;5066081;28;20478;-69
2023/01/08 02:34:04;;;;;;;18.90;6.53;;;-15.80;99.90;;;;;;5071346;28;20098;-70
2023/01/08 02:36:43;;;;;;;11.95;3.88;;;-15.80;99.90;;;;;;5061943;28;20047;-69
2023/01/08 02:39:21;;;;;;;19.13;6.43;;;-15.80;99.90;;;;;;5069282;28;20101;-70
2023/01/08 02:42:06;;;;;;;20.38;6.10;;;-15.90;99.90;;;;;;5070177;28;20090;-70
2023/01/08 02:44:51;;;;;;;20.40;6.82;;;-15.90;99.90;;;;;;5068483;28;20053;-70
2023/01/08 02:47:26;;;;;;;24.05;5.97;;;-15.80;99.90;;;;;;5058373;28;20419;-69
2023/01/08 02:50:15;;;;;;;19.20;4.35;;;-15.80;99.90;;;;;;5067747;28;20049;-69
2023/01/08 02:52:52;;;;;;;15.98;4.60;;;-15.70;99.90;;;;;;5068538;28;20064;-69
2023/01/08 02:55:22;;;;;;;12.65;5.18;;;-15.70;99.90;;;;;;5054484;28;20139;-69
2023/01/08 02:57:52;;;;;;;20.70;6.55;;;-15.70;99.90;;;;;;5061739;28;20052;-69
2023/01/08 03:00:21;;;;;;;24.50;7.60;;;-15.70;99.90;;;;;;5069463;28;20059;-69
2023/01/08 03:02:51;;;;;;;13.65;5.28;;;-15.70;99.90;;;;;;5061292;28;20052;-69
2023/01/08 03:05:25;;;;;;;15.10;5.07;;;-15.80;99.90;;;;;;5050546;28;20083;-69
2023/01/08 03:07:54;;;;;;;18.17;5.50;;;-15.80;99.90;;;;;;5068167;28;20045;-69
2023/01/08 03:10:25;;;;;;;10.73;4.10;;;-15.70;99.90;;;;;;5060504;28;20083;-70
2023/01/08 03:12:58;;;;;;;19.70;6.25;;;-15.70;99.90;;;;;;5064530;28;20044;-71
2023/01/08 03:15:32;;;;;;;15.68;5.68;;;-15.70;99.90;;;;;;5065434;28;20048;-70
2023/01/08 03:18:05;;;;;;;16.13;6.45;;;-15.60;99.90;;;;;;5074399;28;20337;-70
2023/01/08 03:20:36;;;;;;;8.63;3.83;;;-15.60;99.90;;;;;;5072379;28;20045;-69
2023/01/08 03:23:09;;;;;;;15.77;5.18;;;-15.60;99.90;;;;;;5068717;28;20129;-70
2023/01/08 03:25:41;;;;;;;20.33;6.35;;;-15.70;99.90;;;;;;5070078;28;20420;-69
2023/01/08 03:28:17;;;;;;;5.95;2.92;;;-15.70;99.90;;;;;;5073652;28;20053;-70
2023/01/08 03:30:46;;;;;;;13.05;4.65;;;-15.70;99.90;;;;;;5070611;28;20063;-69
2023/01/08 03:33:15;;;;;;;16.90;4.68;;;-15.70;99.90;;;;;;5057078;28;20037;-68
2023/01/08 03:35:47;;;;;;;19.60;5.07;;;-15.60;99.90;;;;;;5056396;28;20079;-69
2023/01/08 03:38:20;;;;;;;15.50;5.53;;;-15.60;99.90;;;;;;5062821;28;20053;-69
2023/01/08 03:40:51;;;;;;;16.80;5.22;;;-15.60;99.90;;;;;;5058966;28;20397;-69
2023/01/08 03:43:20;;;;;;;13.10;4.85;;;-15.50;99.90;;;;;;5056117;28;20052;-69
2023/01/08 03:45:53;;;;;;;17.48;5.25;;;-15.50;99.90;;;;;;5072191;28;20076;-69
2023/01/08 03:48:22;;;;;;;15.43;5.13;;;-15.60;99.90;;;;;;5072382;28;20058;-68
2023/01/08 03:50:49;;;;;;;12.80;4.70;;;-15.60;99.90;;;;;;5065221;28;20041;-69
2023/01/08 03:53:17;;;;;;;14.10;5.53;;;-15.60;99.90;;;;;;5060649;28;20429;-70
2023/01/08 03:55:44;;;;;;;16.38;5.65;;;-15.60;99.90;;;;;;5060839;28;20040;-71
2023/01/08 03:58:12;;;;;;;16.17;6.40;;;-15.60;99.90;;;;;;5072536;28;20508;-69
2023/01/08 04:00:41;;;;;;;17.20;4.97;;;-15.50;99.90;;;;;;5066409;28;20048;-70
2023/01/08 04:03:08;;;;;;;13.82;5.32;;;-15.50;99.90;;;;;;5061739;28;20412;-70
2023/01/08 04:05:36;;;;;;;15.02;5.22;;;-15.50;99.90;;;;;;5072062;28;20066;-69
2023/01/08 04:08:04;;;;;;;18.85;6.38;;;-15.40;99.90;;;;;;5066991;28;20137;-69
2023/01/08 04:10:31;;;;;;;14.23;5.30;;;-15.40;99.90;;;;;;5067168;28;20557;-69
2023/01/08 04:12:59;;;;;;;20.33;6.00;;;-15.30;99.90;;;;;;5062063;28;20139;-68
2023/01/08 04:15:26;;;;;;;18.27;5.90;;;-15.20;99.90;;;;;;5072071;28;20127;-69
2023/01/08 04:17:55;;;;;;;24.13;5.90;;;-15.10;99.90;;;;;;5066215;28;20052;-69
2023/01/08 04:20:23;;;;;;;14.18;5.22;;;-15.10;99.90;;;;;;5052612;28;20455;-69
2023/01/08 04:22:50;;;;;;;22.63;6.60;;;-15.00;99.90;;;;;;5052803;28;20483;-69
2023/01/08 04:25:18;;;;;;;24.58;6.55;;;-15.00;99.90;;;;;;5059318;28;20174;-70
2023/01/08 04:27:45;;;;;;;9.20;4.65;;;-14.90;99.90;;;;;;5064127;28;20485;-70
2023/01/08 04:30:14;;;;;;;21.77;7.40;;;-15.00;99.90;;;;;;5071622;28;20032;-69
2023/01/08 04:32:41;;;;;;;16.45;5.30;;;-15.00;99.90;;;;;;5056506;28;20041;-69
2023/01/08 04:35:10;;;;;;;24.40;7.65;;;-15.00;99.90;;;;;;5071033;28;20055;-70
2023/01/08 04:37:38;;;;;;;21.73;6.57;;;-15.00;99.90;;;;;;5071139;28;20056;-70
2023/01/08 04:40:07;;;;;;;12.68;3.35;;;-15.00;99.90;;;;;;5070850;28;20053;-69
2023/01/08 04:42:34;;;;;;;18.45;7.78;;;-15.10;99.90;;;;;;5070270;28;20055;-69
2023/01/08 04:45:02;;;;;;;17.90;6.78;;;-15.10;99.90;;;;;;5065090;28;20041;-69
2023/01/08 04:47:30;;;;;;;19.13;6.40;;;-15.20;99.90;;;;;;5051412;28;20052;-70
2023/01/08 04:49:57;;;;;;;17.38;6.85;;;-15.10;99.90;;;;;;5052260;28;20044;-70
2023/01/08 04:52:28;;;;;;;21.63;7.05;;;-15.10;99.90;;;;;;5071722;28;20048;-69
2023/01/08 04:54:56;;;;;;;18.42;7.22;;;-15.10;99.90;;;;;;5066360;28;20524;-70
2023/01/08 04:57:23;;;;;;;22.65;7.18;;;-15.00;99.90;;;;;;5066891;28;20076;-69
2023/01/08 04:59:51;;;;;;;16.80;7.40;;;-15.00;99.90;;;;;;5065976;28;20102;-69
2023/01/08 05:02:18;;;;;;;21.52;7.63;;;-15.00;99.90;;;;;;5054262;28;20052;-69
2023/01/08 05:04:47;;;;;;;28.52;8.05;;;-14.90;99.90;;;;;;5059003;28;20073;-69
2023/01/08 05:07:15;;;;;;;22.27;7.13;;;-14.90;99.90;;;;;;5063513;28;20041;-68
2023/01/08 05:09:44;;;;;;;25.02;8.25;;;-14.90;99.90;;;;;;5067487;28;20139;-70
2023/01/08 05:12:11;;;;;;;24.08;8.02;;;-14.90;99.90;;;;;;5062025;28;20045;-70
2023/01/08 05:14:39;;;;;;;23.30;7.68;;;-14.90;99.90;;;;;;5068940;28;20054;-70
2023/01/08 05:17:06;;;;;;;25.80;7.75;;;-14.90;99.90;;;;;;5052260;28;20476;-69
2023/01/08 05:19:34;;;;;;;22.73;7.63;;;-14.90;99.90;;;;;;5051395;28;20052;-69
2023/01/08 05:22:01;;;;;;;21.40;7.35;;;-14.90;99.90;;;;;;5053368;28;20604;-69
2023/01/08 05:24:29;;;;;;;21.83;7.15;;;-15.00;99.90;;;;;;5065047;28;20047;-70
2023/01/08 05:26:57;;;;;;;23.27;7.13;;;-15.00;99.90;;;;;;5053791;28;20041;-68
2023/01/08 05:29:25;;;;;;;24.02;7.68;;;-14.90;99.90;;;;;;5066166;28;20524;-69
2023/01/08 05:31:52;;;;;;;23.92;6.85;;;-14.90;99.90;;;;;;5051344;28;20420;-68
2023/01/08 05:34:20;;;;;;;18.77;7.43;;;-14.80;99.90;;;;;;5050927;28;20501;-70
2023/01/08 05:36:47;;;;;;;26.67;7.28;;;-14.90;99.90;;;;;;5068420;28;20090;-72
2023/01/08 05:39:15;;;;;;;21.50;6.85;;;-14.90;99.90;;;;;;5069152;28;20052;-70
2023/01/08 05:41:42;;;;;;;21.40;7.60;;;-14.90;99.90;;;;;;5063774;28;20386;-70
2023/01/08 05:44:12;;;;;;;20.00;6.63;;;-14.90;99.90;;;;;;5052874;28;20052;-70
2023/01/08 05:46:39;;;;;;;15.93;5.70;;;-14.80;99.90;;;;;;5048667;28;20052;-70
2023/01/08 05:49:07;;;;;;;19.77;7.15;;;-14.90;99.90;;;;;;5056328;28;20130;-71
2023/01/08 05:51:34;;;;;;;22.77;7.05;;;-14.90;99.90;;;;;;5066736;28;20153;-70
2023/01/08 05:54:01;;;;;;;19.23;6.72;;;-14.80;99.90;;;;;;5051287;28;20072;-71
2023/01/08 05:56:29;;;;;;;16.38;5.95;;;-14.80;99.90;;;;;;5061032;28;20044;-69
2023/01/08 05:58:56;;;;;;;18.38;6.43;;;-14.80;99.90;;;;;;5056212;28;20044;-69
2023/01/08 06:01:25;;;;;;;18.30;6.93;;;-14.70;99.90;;;;;;5054762;28;20049;-72
2023/01/08 06:03:55;;;;;;;30.40;7.72;;;-14.70;99.90;;;;;;5062113;28;20036;-71
2023/01/08 06:06:23;;;;;;;18.08;6.07;;;-14.70;99.90;;;;;;5051454;28;20048;-70
2023/01/08 06:08:50;;;;;;;21.95;6.82;;;-14.70;99.90;;;;;;5052329;28;20044;-72
2023/01/08 06:11:18;;;;;;;20.67;6.25;;;-14.70;99.90;;;;;;5050249;28;20049;-67
2023/01/08 06:13:45;;;;;;;17.77;6.55;;;-14.70;99.90;;;;;;5049462;28;20102;-66
2023/01/08 06:16:13;;;;;;;16.88;6.05;;;-14.70;99.90;;;;;;5051180;28;20061;-66
2023/01/08 06:18:42;;;;;;;20.75;7.28;;;-14.70;99.90;;;;;;5055593;28;20131;-66
2023/01/08 06:21:12;;;;;;;21.15;6.82;;;-14.70;99.90;;;;;;5057139;28;20138;-67
2023/01/08 06:23:39;;;;;;;18.13;6.82;;;-14.70;99.90;;;;;;5066755;28;20052;-66
2023/01/08 06:26:07;;;;;;;17.73;6.13;;;-14.70;99.90;;;;;;5070181;28;20048;-67
2023/01/08 06:28:35;;;;;;;15.10;6.20;;;-14.70;99.90;;;;;;5060734;28;20051;-66
2023/01/08 06:31:04;;;;;;;15.77;5.63;;;-14.60;99.90;;;;;;5068443;28;20060;-66
2023/01/08 06:33:33;;;;;;;19.23;6.35;;;-14.60;99.90;;;;;;5070066;28;20483;-65
2023/01/08 06:36:03;;;;;;;18.58;6.38;;;-14.50;99.90;;;;;;5068559;28;20480;-66
2023/01/08 06:38:32;;;;;;;13.30;5.95;;;-14.50;99.90;;;;;;5054018;28;20085;-69
2023/01/08 06:41:04;;;;;;;17.75;6.95;;;-14.50;99.90;;;;;;5047644;28;20067;-66
2023/01/08 06:43:33;;;;;;;17.30;6.35;;;-14.50;99.90;;;;;;5062733;28;20416;-67
2023/01/08 06:46:01;;;;;;;16.63;5.85;;;-14.50;99.90;;;;;;5067606;28;20044;-66
2023/01/08 06:48:29;;;;;;;21.00;7.32;;;-14.40;99.90;;;;;;5070585;28;20586;-67
2023/01/08 06:51:00;;;;;;;21.20;6.70;;;-14.40;99.90;;;;;;5068833;28;20536;-66
2023/01/08 06:53:29;;;;;;;18.83;6.18;;;-14.30;99.90;;;;;;5054924;28;20056;-66
2023/01/08 06:55:57;;;;;;;14.38;5.78;;;-14.30;99.90;;;;;;5056207;28;20107;-68
2023/01/08 06:58:25;;;;;;;17.15;5.60;;;-14.30;99.90;;;;;;5053387;28;20425;-68
2023/01/08 07:00:52;;;;;;;17.60;6.88;;;-14.30;99.90;;;;;;5061894;28;20057;-68
2023/01/08 07:03:20;;;;;;;15.52;5.85;;;-14.30;99.90;;;;;;5044295;28;20052;-67
2023/01/08 07:05:49;;;;;;;16.80;6.68;;;-14.30;99.90;;;;;;5060556;28;20045;-68
2023/01/08 07:08:18;;;;;;;23.55;6.53;;;-14.30;99.90;;;;;;5052648;28;20680;-67
2023/01/08 07:10:47;;;;;;;13.60;4.53;;;-14.30;99.90;;;;;;5048622;28;20064;-67
2023/01/08 07:13:15;;;;;;;16.50;5.88;;;-14.20;99.90;;;;;;5050507;28;20045;-69
2023/01/08 07:15:43;;;;;;;14.10;5.28;;;-14.30;99.90;;;;;;5062866;28;20044;-68
2023/01/08 07:18:12;;;;;;;16.42;5.35;;;-14.20;99.90;;;;;;5054722;28;20568;-68
2023/01/08 07:20:40;;;;;;;17.15;5.97;;;-14.30;99.90;;;;;;5063088;28;20044;-69
2023/01/08 07:23:11;;;;;;;18.38;6.75;;;-14.30;99.90;;;;;;5058276;28;20045;-73
2023/01/08 07:25:39;;;;;;;16.80;4.82;;;-14.20;99.90;;;;;;5060142;28;20045;-72
2023/01/08 07:28:12;;;;;;;11.40;4.75;;;-14.20;99.90;;;;;;5056946;28;20037;-72
2023/01/08 07:30:40;;;;;;;23.92;5.70;;;-14.20;99.90;;;;;;5057481;28;21702;-68
2023/01/08 07:33:07;;;;;;;14.75;5.40;;;-14.30;99.90;;;;;;5055953;28;20537;-68
2023/01/08 07:35:37;;;;;;;18.02;5.32;;;-14.30;99.90;;;;;;5057520;28;20049;-67
2023/01/08 07:38:04;;;;;;;18.25;5.90;;;-14.40;99.90;;;;;;5056269;28;20040;-68
2023/01/08 07:40:32;;;;;;;19.85;6.93;;;-14.40;99.90;;;;;;5062269;28;20052;-68
2023/01/08 07:43:01;;;;;;;20.35;6.68;;;-14.50;99.90;;;;;;5056864;28;20086;-67
2023/01/08 07:45:30;;;;;;;13.95;5.60;;;-14.50;99.90;;;;;;5058238;28;20048;-68
2023/01/08 07:47:59;;;;;;;15.73;4.45;;;-14.40;99.90;;;;;;5064499;28;20431;-67
2023/01/08 07:50:27;;;;;;;24.63;5.78;;;-14.50;99.90;;;;;;5054787;28;20054;-67
2023/01/08 07:52:58;;;;;;;12.98;4.80;;;-14.40;99.90;;;;;;5060941;28;20045;-67
2023/01/08 07:55:26;;;;;;;15.57;5.80;;;-14.30;99.90;;;;;;5057877;28;20140;-68
2023/01/08 07:57:53;;;;;;;13.98;6.00;;;-14.30;99.90;;;;;;5058971;28;20118;-67
2023/01/08 08:00:21;;;;;;;17.35;6.10;;;-14.30;99.90;;;;;;5061876;28;20467;-74
2023/01/08 08:02:50;;;;;;;17.27;5.72;;;-14.30;99.90;;;;;;5060840;28;20147;-72
2023/01/08 08:05:21;;;;;;;8.88;3.83;;;-14.20;99.90;;;;;;5060864;28;20560;-74
2023/01/08 08:07:48;;;;;;;11.27;5.10;;;-14.30;99.90;;;;;;5072295;28;20049;-73
2023/01/08 08:10:16;;;;;;;17.25;5.75;;;-14.40;99.90;;;;;;5059863;28;20048;-73
2023/01/08 08:12:45;;;;;;;11.93;5.18;;;-14.40;99.90;;;;;;5061379;28;20114;-74
2023/01/08 08:15:12;;;;;;;13.82;4.40;;;-14.40;99.90;;;;;;5058995;28;20049;-73
2023/01/08 08:17:40;;;;;;;9.32;4.05;;;-14.30;99.90;;;;;;5060822;28;20052;-73
2023/01/08 08:20:11;;;;;;;14.20;4.88;;;-14.10;99.90;;;;;;5061835;28;20645;-73
2023/01/08 08:22:39;;;;;;;11.82;4.60;;;-14.00;99.90;;;;;;5056370;28;20494;-68
2023/01/08 08:25:07;;;;;;;9.45;3.92;;;-14.00;99.90;;;;;;5058638;28;20047;-67
2023/01/08 08:27:35;;;;;;;5.03;2.85;;;-14.00;99.90;;;;;;5063064;28;20049;-70
2023/01/08 08:30:07;;;;;;;11.65;5.03;;;-14.00;99.90;;;;;;5060134;28;20033;-70
2023/01/08 08:32:35;;;;;;;12.13;4.50;;;-14.00;99.90;;;;;;5061175;28;20105;-69
2023/01/08 08:35:04;;;;;;;14.35;5.03;;;-13.90;99.90;;;;;;5057244;28;20041;-68
2023/01/08 08:37:33;;;;;;;10.85;4.78;;;-13.70;99.90;;;;;;5063221;28;20095;-67
2023/01/08 08:40:00;;;;;;;7.60;3.60;;;-13.60;99.90;;;;;;5055231;28;20095;-70
2023/01/08 08:42:28;;;;;;;14.82;4.35;;;-13.50;99.90;;;;;;5068922;28;20052;-71
2023/01/08 08:44:56;;;;;;;13.98;5.07;;;-13.40;99.90;;;;;;5059371;28;20489;-75
2023/01/08 08:47:23;;;;;;;8.75;4.60;;;-13.40;99.90;;;;;;5060873;28;20041;-72
2023/01/08 08:49:51;;;;;;;15.25;5.28;;;-13.40;99.90;;;;;;5068220;28;20105;-75
2023/01/08 08:52:19;;;;;;;12.98;5.00;;;-13.40;99.90;;;;;;5064401;28;20044;-75
2023/01/08 08:54:48;;;;;;;17.42;5.05;;;-13.40;99.90;;;;;;5055641;28;21430;-73
2023/01/08 08:57:16;;;;;;;11.15;4.93;;;-13.30;99.90;;;;;;5063561;28;20563;-73
2023/01/08 08:59:45;;;;;;;14.20;5.68;;;-13.30;99.90;;;;;;5060201;28;20040;-72
2023/01/08 09:02:13;;;;;;;16.48;4.97;;;-13.20;99.90;;;;;;5063560;28;20097;-72
2023/01/08 09:04:40;;;;;;;13.30;5.38;;;-13.20;99.90;;;;;;5059734;28;20064;-75
2023/01/08 09:07:08;;;;;;;13.93;5.40;;;-13.10;99.90;;;;;;5066324;28;20080;-78
2023/01/08 09:09:35;;;;;;;16.77;5.38;;;-13.10;99.90;;;;;;5058385;28;20554;-74
2023/01/08 09:12:07;;;;;;;10.65;4.53;;;-13.10;99.90;;;;;;5061358;28;20044;-71
2023/01/08 09:14:34;;;;;;;10.80;5.07;;;-13.10;99.90;;;;;;5062980;28;20048;-76
2023/01/08 09:17:02;;;;;;;12.80;4.57;;;-13.10;99.90;;;;;;5063406;28;20049;-77
2023/01/08 09:19:30;;;;;;;13.60;4.90;;;-13.10;99.90;;;;;;5063143;28;20049;-78
2023/01/08 09:21:57;;;;;;;12.80;5.20;;;-13.10;99.90;;;;;;5068065;28;20059;-76
2023/01/08 09:24:25;;;;;;;14.90;5.15;;;-13.10;99.90;;;;;;5063676;28;20146;-73
2023/01/08 09:26:53;;;;;;;11.75;5.28;;;-13.10;99.90;;;;;;5066041;28;20055;-73
2023/01/08 09:29:23;;;;;;;15.38;5.22;;;-13.10;99.90;;;;;;5063074;28;20417;-72
2023/01/08 09:31:51;;;;;;;18.30;5.78;;;-13.00;99.90;;;;;;5064014;28;20139;-72
2023/01/08 09:34:18;;;;;;;9.77;5.32;;;-12.90;99.90;;;;;;5064671;28;20052;-72
2023/01/08 09:36:46;;;;;;;12.45;5.97;;;-12.90;99.90;;;;;;5064439;28;20049;-72
2023/01/08 09:39:13;;;;;;;16.30;5.88;;;-12.90;99.90;;;;;;5062332;28;20512;-69
2023/01/08 09:41:46;;;;;;;12.65;5.13;;;-13.00;99.90;;;;;;5063952;28;20132;-71
2023/01/08 09:44:18;;;;;;;13.07;5.32;;;-12.90;99.90;;;;;;5058786;28;20162;-71
2023/01/08 09:46:48;;;;;;;;;;;-12.80;99.90;;;;;;5068010;28;20048;-71
2023/01/08 09:49:23;;;;;;;19.30;5.30;;;-12.70;99.90;;;;;;5066780;28;19936;-70
2023/01/08 09:51:50;;;;;;;12.07;5.25;;;-12.70;99.90;;;;;;5062142;28;20587;-73
2023/01/08 09:54:18;;;;;;;15.25;5.85;;;-12.70;99.90;;;;;;5060837;28;20046;-74
2023/01/08 09:56:46;;;;;;;11.75;4.53;;;-12.70;99.90;;;;;;5059775;28;20497;-75
2023/01/08 09:59:17;;;;;;;14.52;5.20;;;-12.70;99.90;;;;;;5065163;28;20048;-74
2023/01/08 10:01:47;;;;;;;16.88;5.78;;;-12.70;99.90;;;;;;5064325;28;20060;-73
2023/01/08 10:04:18;;;;;;;19.23;6.43;;;-12.70;99.90;;;;;;5066714;28;20063;-73
2023/01/08 10:06:52;;;;;;;21.65;6.72;;;-12.70;99.90;;;;;;5064203;28;20048;-73
2023/01/08 10:09:25;;;;;;;18.17;5.88;;;-12.70;99.90;;;;;;5062140;28;20075;-74
2023/01/08 10:11:55;;;;;;;21.20;6.35;;;-12.60;99.90;;;;;;5065342;28;20044;-72
2023/01/08 10:14:28;;;;;;;15.55;5.05;;;-12.50;99.90;;;;;;5064222;28;20057;-76
2023/01/08 10:17:03;;;;;;;17.90;5.97;;;-12.50;99.90;;;;;;5067103;28;20056;-75
2023/01/08 10:19:31;;;;;;;14.80;6.00;;;-12.40;99.90;;;;;;5063614;28;20045;-74
2023/01/08 10:21:59;;;;;;;11.43;5.47;;;-12.20;99.90;;;;;;5063578;28;20040;-73
2023/01/08 10:24:35;;;;;;;10.75;5.63;;;-11.80;99.90;;;;;;5060969;28;20098;-74
2023/01/08 10:27:09;;;;;;;10.95;4.82;;;-11.50;99.90;;;;;;5059294;28;20049;-74
2023/01/08 10:29:38;;;;;;;15.52;6.05;;;-10.90;99.90;;;;;;5060595;28;20072;-75
2023/01/08 10:32:15;;;;;;;10.70;4.35;;;-10.30;99.90;;;;;;5063454;28;20048;-73
2023/01/08 10:34:50;;;;;;;12.55;4.80;;;-9.90;99.90;;;;;;5062593;28;20052;-69
2023/01/08 10:37:26;;;;;;;9.13;4.05;;;-10.00;99.90;;;;;;5063389;28;20317;-71
2023/01/08 10:39:56;;;;;;;6.63;3.45;;;-10.30;99.90;;;;;;5063873;28;20498;-72
2023/01/08 10:42:25;;;;;;;13.35;4.70;;;-10.60;99.90;;;;;;5045242;28;20451;-73
2023/01/08 10:45:00;;;;;;;9.15;4.05;;;-10.90;99.90;;;;;;5062951;28;20078;-73
2023/01/08 10:47:32;;;;;;;11.27;3.83;;;-11.10;99.90;;;;;;5061969;28;20064;-73
2023/01/08 10:50:01;;;;;;;10.88;4.38;;;-11.40;99.90;;;;;;5063493;28;20080;-75
2023/01/08 10:52:35;;;;;;;9.13;4.15;;;-11.40;99.90;;;;;;5064580;28;20092;-72
2023/01/08 10:55:23;;;;;;;11.30;5.35;;;-11.50;99.90;;;;;;5062492;28;20046;-73
2023/01/08 10:57:59;;;;;;;15.38;4.43;;;-11.70;99.90;;;;;;5062126;28;20568;-74
2023/01/08 11:00:29;;;;;;;14.95;4.35;;;-11.70;99.90;;;;;;5057799;28;20053;-73
2023/01/08 11:03:01;;;;;;;12.68;4.20;;;-11.80;99.90;;;;;;5061730;28;20051;-73
2023/01/08 11:05:34;;;;;;;8.70;4.00;;;-11.80;99.90;;;;;;5060356;28;20053;-73
2023/01/08 11:08:05;;;;;;;9.07;4.38;;;-11.90;99.90;;;;;;5064181;28;20146;-73
2023/01/08 11:10:35;;;;;;;9.57;3.92;;;-11.80;99.90;;;;;;5059913;28;20052;-74
2023/01/08 11:13:06;;;;;;;9.32;4.47;;;-11.70;99.90;;;;;;5058694;28;20048;-73
2023/01/08 11:15:38;;;;;;;12.00;4.50;;;-11.70;99.90;;;;;;5056599;28;20041;-68
2023/01/08 11:18:23;;;;;;;11.35;4.72;;;-11.80;99.90;;;;;;5062256;28;20048;-71
2023/01/08 11:20:54;;;;;;;8.65;3.85;;;-11.80;99.90;;;;;;5061251;28;20095;-73
2023/01/08 11:23:25;;;;;;;8.50;4.50;;;-11.90;99.90;;;;;;5064469;28;20475;-74
2023/01/08 11:26:01;;;;;;;9.73;4.18;;;-11.90;99.90;;;;;;5046709;28;20044;-69
2023/01/08 11:28:42;;;;;;;8.57;4.00;;;-11.90;99.90;;;;;;5063316;28;20048;-68
2023/01/08 11:31:19;;;;;;;11.40;4.80;;;-11.90;99.90;;;;;;5062717;28;20048;-71
2023/01/08 11:33:53;;;;;;;6.72;3.40;;;-11.90;99.90;;;;;;5064519;28;20057;-68
2023/01/08 11:36:28;;;;;;;8.13;4.00;;;-11.90;99.90;;;;;;5049830;28;20044;-69
2023/01/08 11:38:55;;;;;;;9.45;3.83;;;-11.80;99.90;;;;;;5066770;28;20819;-69
2023/01/08 11:41:55;;;;;;;9.38;3.60;;;-11.80;99.90;;;;;;5070636;28;20045;-70
2023/01/08 11:44:35;;;;;;;8.60;3.55;;;-11.90;99.90;;;;;;5062880;28;20066;-69
2023/01/08 11:47:14;;;;;;;8.75;4.10;;;-11.90;99.90;;;;;;5068102;28;20411;-68
2023/01/08 11:50:19;;;;;;;8.63;3.83;;;-11.90;99.90;;;;;;5067221;28;20492;-68
2023/01/08 11:53:06;;;;;;;6.28;3.38;;;-11.90;99.90;;;;;;5023492;28;20059;-75
2023/01/08 11:55:49;;;;;;;8.95;4.05;;;-11.80;99.90;;;;;;5066005;28;20455;-73
2023/01/08 11:58:30;;;;;;;6.97;3.28;;;-11.90;99.90;;;;;;5063114;28;20040;-67
2023/01/08 12:01:18;;;;;;;20.90;7.80;;;-11.90;99.90;;;;;;5061687;28;20405;-69
2023/01/08 12:03:54;;;;;;;6.40;3.35;;;-11.90;99.90;;;;;;5065285;28;20106;-70
2023/01/08 12:06:35;;;;;;;5.22;2.90;;;-11.80;99.90;;;;;;5069317;28;20147;-68
2023/01/08 12:09:22;;;;;;;8.23;3.70;;;-11.80;99.90;;;;;;5069618;28;20056;-69
2023/01/08 12:11:57;;;;;;;7.38;3.15;;;-11.80;99.90;;;;;;5066335;28;20048;-70
2023/01/08 12:14:47;;;;;;;7.82;4.00;;;-11.90;99.90;;;;;;5067436;28;20094;-69
2023/01/08 12:17:54;;;;;;;7.78;3.85;;;-11.80;99.90;;;;;;5066101;28;20052;-68
2023/01/08 12:20:32;;;;;;;8.55;3.85;;;-11.70;99.90;;;;;;5065867;28;20051;-67
2023/01/08 12:23:27;;;;;;;8.20;3.85;;;-11.70;99.90;;;;;;5066964;28;20138;-67
2023/01/08 12:26:10;;;;;;;8.52;3.60;;;-11.70;99.90;;;;;;5066916;28;20048;-68
2023/01/08 12:28:59;;;;;;;7.57;3.80;;;-11.80;99.90;;;;;;5064605;28;20053;-69
2023/01/08 12:32:09;;;;;;;13.05;4.28;;;-11.80;99.90;;;;;;5060986;28;20200;-70
2023/01/08 12:34:57;;;;;;;9.23;4.13;;;-11.80;99.90;;;;;;5027680;28;20091;-70
2023/01/08 12:37:31;;;;;;;11.50;4.80;;;-11.70;99.90;;;;;;5065923;28;20131;-71
2023/01/08 12:40:12;;;;;;;26.67;4.22;;;-11.90;99.90;;;;;;5065516;28;20137;-69
2023/01/08 12:42:44;;;;;;;11.43;4.22;;;-12.00;99.90;;;;;;5067020;28;20524;-70
2023/01/08 12:45:22;;;;;;;9.30;4.03;;;-12.00;99.90;;;;;;5065203;28;20044;-70
2023/01/08 12:47:55;;;;;;;7.72;3.70;;;-12.10;99.90;;;;;;5063402;28;20433;-69